Time;durP1;ratioP1;P1;durP2;ratioP2;P2;SDS_P1;SDS_P2;PMS_P1;PMS_P2;Temp;Humidity;BMP_temperature;BMP_pressure;BME280_temperature;BME280_humidity;BME280_pressure;Samples;Min_cycle;Max_cycle;Signal;HPM_P1;HPM_P2
2022/08/02 00:02:22;;;;;;;6.03;3.00;;;;;;;14.13;80.41;101752.09;5066614;28;20064;-81
2022/08/02 00:04:47;;;;;;;5.03;2.80;;;;;;;14.16;76.95;101746.19;5066436;28;20119;-81
2022/08/02 00:07:14;;;;;;;5.33;2.90;;;;;;;14.20;75.01;101741.16;5066837;28;20119;-82
2022/08/02 00:09:45;;;;;;;6.80;3.07;;;;;;;14.25;74.49;101752.25;5066513;28;20032;-82
2022/08/02 00:12:11;;;;;;;6.57;3.27;;;;;;;14.28;75.91;101740.94;5066984;28;20139;-82
2022/08/02 00:14:36;;;;;;;3.83;2.90;;;;;;;14.32;78.86;101744.03;5066630;28;20032;-82
2022/08/02 00:17:03;;;;;;;6.97;3.20;;;;;;;14.35;73.97;101735.44;5065265;28;20043;-82
2022/08/02 00:19:28;;;;;;;5.13;3.30;;;;;;;14.40;73.53;101748.44;5067401;28;20518;-82
2022/08/02 00:21:54;;;;;;;5.17;3.13;;;;;;;14.38;79.23;101745.09;5064885;28;20111;-82
2022/08/02 00:24:19;;;;;;;6.10;3.60;;;;;;;14.38;81.45;101745.09;5064858;28;20380;-82
2022/08/02 00:26:44;;;;;;;4.67;3.30;;;;;;;14.45;78.59;101744.00;5066092;28;20372;-83
2022/08/02 00:29:10;;;;;;;4.83;3.20;;;;;;;14.53;76.77;101748.38;5066314;28;20039;-82
2022/08/02 00:31:35;;;;;;;5.70;3.60;;;;;;;14.47;75.48;101747.34;5065676;28;20047;-82
2022/08/02 00:34:00;;;;;;;7.00;3.60;;;;;;;14.54;75.89;101744.59;5065377;28;20047;-82
2022/08/02 00:36:26;;;;;;;7.80;3.43;;;;;;;14.51;71.62;101743.16;5066166;28;20480;-82
2022/08/02 00:38:51;;;;;;;3.47;3.17;;;;;;;14.54;73.00;101747.34;5063598;28;20071;-82
2022/08/02 00:41:20;;;;;;;4.63;3.50;;;;;;;14.56;71.10;101733.47;5066355;28;20032;-81
2022/08/02 00:43:47;;;;;;;7.17;3.10;;;;;;;14.58;68.16;101734.94;5066070;28;20491;-82
2022/08/02 00:46:14;;;;;;;6.33;3.20;;;;;;;14.62;67.33;101736.19;5065787;28;20038;-82
2022/08/02 00:48:40;;;;;;;6.23;3.40;;;;;;;14.62;67.34;101732.59;5064768;28;20500;-82
2022/08/02 00:51:06;;;;;;;5.40;3.40;;;;;;;14.65;68.07;101727.59;5066952;28;20039;-82
2022/08/02 00:53:31;;;;;;;7.17;3.30;;;;;;;14.71;67.08;101716.84;5066245;28;20040;-82
2022/08/02 00:55:57;;;;;;;7.03;3.30;;;;;;;14.68;67.14;101712.69;5065630;28;20372;-82
2022/08/02 00:58:22;;;;;;;5.67;3.50;;;;;;;14.70;67.63;101718.75;5065617;28;20062;-82
2022/08/02 01:00:48;;;;;;;6.70;3.40;;;;;;;14.73;67.30;101712.00;5062990;28;20463;-81
2022/08/02 01:03:13;;;;;;;7.20;3.50;;;;;;;14.75;67.27;101723.56;5063411;28;20032;-82
2022/08/02 01:05:39;;;;;;;8.43;3.70;;;;;;;14.75;66.92;101720.81;5063059;28;20391;-80
2022/08/02 01:08:04;;;;;;;5.30;3.60;;;;;;;14.76;67.33;101709.69;5065596;28;20031;-81
2022/08/02 01:10:30;;;;;;;6.73;3.60;;;;;;;14.74;67.85;101708.22;5065477;28;20620;-82
2022/08/02 01:12:55;;;;;;;6.10;3.40;;;;;;;14.75;67.67;101713.47;5064941;28;20043;-81
2022/08/02 01:15:21;;;;;;;6.10;3.30;;;;;;;14.73;67.86;101710.13;5065602;28;20036;-81
2022/08/02 01:18:02;;;;;;;5.57;3.33;;;;;;;14.74;68.27;101711.81;5064838;28;20522;-81
2022/08/02 01:20:36;;;;;;;6.00;3.40;;;;;;;14.73;67.82;101710.13;5065236;28;20033;-81
2022/08/02 01:23:23;;;;;;;6.20;3.60;;;;;;;14.76;68.21;101722.50;5065512;28;20222;-81
2022/08/02 01:26:15;;;;;;;10.37;3.40;;;;;;;14.76;67.97;101719.78;5064608;28;20466;-81
2022/08/02 01:29:01;;;;;;;6.67;3.30;;;;;;;14.77;68.45;101718.69;5065293;28;20051;-81
2022/08/02 01:31:47;;;;;;;4.43;3.20;;;;;;;14.76;68.99;101719.78;5065435;28;20032;-81
2022/08/02 01:34:36;;;;;;;6.87;3.50;;;;;;;14.73;68.95;101706.56;5062247;28;20562;-81
2022/08/02 01:37:10;;;;;;;6.47;3.50;;;;;;;14.73;68.81;101703.81;5065104;28;20665;-81
2022/08/02 01:39:39;;;;;;;9.93;3.70;;;;;;;14.72;69.42;101710.34;5064551;28;20032;-81
2022/08/02 01:42:06;;;;;;;6.77;3.23;;;;;;;14.72;69.12;101708.47;5081500;28;20029;-81
2022/08/02 01:44:35;;;;;;;10.03;3.50;;;;;;;14.71;68.73;101706.78;5064358;28;20040;-81
2022/08/02 01:47:08;;;;;;;7.60;3.43;;;;;;;14.71;69.06;101705.94;5062144;28;20036;-81
2022/08/02 01:49:36;;;;;;;7.70;3.47;;;;;;;14.66;69.24;101688.34;5063714;28;20122;-81
2022/08/02 01:52:22;;;;;;;7.93;3.40;;;;;;;14.69;68.80;101693.34;5065642;28;20049;-81
2022/08/02 01:54:58;;;;;;;6.53;3.17;;;;;;;14.71;69.26;101700.50;5064370;28;20031;-81
2022/08/02 01:57:25;;;;;;;5.40;3.13;;;;;;;14.64;68.95;101685.00;5065764;28;20075;-81
2022/08/02 01:59:53;;;;;;;7.07;3.23;;;;;;;14.67;68.75;101697.34;5064614;28;20067;-80
2022/08/02 02:02:22;;;;;;;6.83;3.30;;;;;;;14.65;68.95;101692.13;5063143;28;20039;-81
2022/08/02 02:04:49;;;;;;;7.63;3.17;;;;;;;14.65;69.32;101686.66;5063979;28;20490;-81
2022/08/02 02:07:17;;;;;;;5.87;3.13;;;;;;;14.65;69.18;101688.56;5065045;28;20075;-81
2022/08/02 02:09:44;;;;;;;6.47;2.90;;;;;;;14.63;69.22;101688.78;5063861;28;20589;-81
2022/08/02 02:12:12;;;;;;;4.23;3.37;;;;;;;14.66;69.48;101699.25;5064423;28;20058;-81
2022/08/02 02:14:38;;;;;;;7.00;3.20;;;;;;;14.60;69.72;101693.81;5064600;28;20036;-81
2022/08/02 02:17:05;;;;;;;5.77;3.20;;;;;;;14.61;69.16;101685.41;5064527;28;20668;-80
2022/08/02 02:19:33;;;;;;;8.30;3.60;;;;;;;14.60;69.21;101682.91;5063740;28;20427;-80
2022/08/02 02:21:58;;;;;;;6.67;3.40;;;;;;;14.58;69.28;101676.81;5064780;28;20031;-80
2022/08/02 02:24:23;;;;;;;7.43;3.40;;;;;;;14.56;69.22;101674.31;5064966;28;20408;-80
2022/08/02 02:26:50;;;;;;;7.80;3.60;;;;;;;14.54;69.33;101668.25;5062839;28;20516;-81
2022/08/02 02:29:19;;;;;;;7.37;3.63;;;;;;;14.51;69.80;101664.06;5061658;28;20040;-81
2022/08/02 02:31:46;;;;;;;7.23;3.90;;;;;;;14.48;69.81;101659.06;5066326;28;20093;-80
2022/08/02 02:34:34;;;;;;;7.23;3.60;;;;;;;14.52;69.65;101659.44;5066840;28;20039;-81
2022/08/02 02:37:03;;;;;;;7.83;3.60;;;;;;;14.44;70.07;101649.66;5069416;28;20123;-81
2022/08/02 02:39:31;;;;;;;7.37;3.57;;;;;;;14.44;69.37;101652.38;5067475;28;20052;-81
2022/08/02 02:42:01;;;;;;;7.27;3.50;;;;;;;14.41;69.72;101654.69;5067583;28;20071;-80
2022/08/02 02:44:29;;;;;;;5.93;3.30;;;;;;;14.45;69.27;101648.56;5067641;28;20037;-81
2022/08/02 02:46:56;;;;;;;10.53;3.40;;;;;;;14.45;69.79;101647.75;5083167;28;20052;-82
2022/08/02 02:49:24;;;;;;;7.63;3.50;;;;;;;14.43;69.39;101656.13;5068166;28;20051;-81
2022/08/02 02:51:50;;;;;;;9.80;3.73;;;;;;;14.40;69.73;101653.00;5083827;28;20036;-81
2022/08/02 02:54:17;;;;;;;8.60;3.20;;;;;;;14.42;69.63;101656.38;5065433;28;20024;-80
2022/08/02 02:56:44;;;;;;;9.47;3.50;;;;;;;14.41;69.85;101658.22;5067492;28;20312;-81
2022/08/02 02:59:13;;;;;;;9.03;3.63;;;;;;;14.35;70.50;101651.75;5068360;28;20082;-81
2022/08/02 03:01:39;;;;;;;5.57;3.33;;;;;;;14.36;70.38;101652.63;5067187;28;20043;-81
2022/08/02 03:04:08;;;;;;;7.67;3.47;;;;;;;14.27;71.94;101654.75;5067999;28;20036;-81
2022/08/02 03:06:35;;;;;;;6.83;3.40;;;;;;;14.31;71.05;101652.44;5067532;28;20051;-81
2022/08/02 03:09:19;;;;;;;9.80;3.70;;;;;;;14.31;71.34;101647.81;5065773;28;20044;-81
2022/08/02 03:11:45;;;;;;;9.00;3.85;;;;;;;14.27;71.54;101645.75;5067935;28;20467;-80
2022/08/02 03:14:11;;;;;;;7.20;3.77;;;;;;;14.23;71.37;101639.88;5066014;28;20036;-80
2022/08/02 03:16:45;;;;;;;10.10;3.73;;;;;;;14.23;71.66;101648.06;5067391;28;20040;-81
2022/08/02 03:19:11;;;;;;;7.20;3.70;;;;;;;14.18;71.95;101645.13;5067385;28;20122;-81
2022/08/02 03:21:37;;;;;;;8.73;4.40;;;;;;;14.18;72.26;101656.03;5067329;28;20542;-80
2022/08/02 03:24:03;;;;;;;9.07;3.90;;;;;;;14.18;72.08;101658.75;5068134;28;20123;-81
2022/08/02 03:26:28;;;;;;;7.27;3.93;;;;;;;14.17;72.62;101652.47;5066773;28;20042;-82
2022/08/02 03:28:54;;;;;;;7.03;4.47;;;;;;;14.17;72.94;101657.09;5066808;28;20434;-81
2022/08/02 03:31:19;;;;;;;6.87;4.10;;;;;;;14.18;73.14;101666.94;5066249;28;20118;-81
2022/08/02 03:33:45;;;;;;;10.53;4.30;;;;;;;14.18;73.40;101651.44;5067282;28;20491;-81
2022/08/02 03:36:15;;;;;;;9.93;4.40;;;;;;;14.20;73.42;101645.78;5048915;28;20036;-81
2022/08/02 03:38:42;;;;;;;8.23;4.50;;;;;;;14.18;73.22;101637.81;5067017;28;20150;-81
2022/08/02 03:41:10;;;;;;;13.13;4.67;;;;;;;14.18;73.68;101642.41;5066797;28;20032;-81
2022/08/02 03:43:37;;;;;;;10.27;4.53;;;;;;;14.15;76.00;101637.41;5066082;28;20105;-81
2022/08/02 03:46:06;;;;;;;6.90;4.43;;;;;;;14.19;73.98;101635.91;5066751;28;20032;-80
2022/08/02 03:48:32;;;;;;;7.40;4.43;;;;;;;14.15;74.48;101630.03;5067022;28;20131;-81
2022/08/02 03:50:58;;;;;;;10.63;4.90;;;;;;;14.17;74.21;101627.97;5067627;28;20125;-81
2022/08/02 03:53:24;;;;;;;8.83;4.70;;;;;;;14.16;74.21;101628.19;5067033;28;20033;-81
2022/08/02 03:55:50;;;;;;;10.70;4.70;;;;;;;14.14;74.67;101624.81;5066242;28;20052;-81
2022/08/02 03:58:20;;;;;;;10.40;4.87;;;;;;;14.13;74.74;101625.88;5065843;28;20372;-80
2022/08/02 04:00:46;;;;;;;11.87;5.07;;;;;;;14.11;74.64;101623.34;5065798;28;20703;-81
2022/08/02 04:03:11;;;;;;;12.67;4.80;;;;;;;14.12;74.91;101624.22;5066956;28;20048;-80
2022/08/02 04:05:37;;;;;;;9.83;4.97;;;;;;;14.12;74.68;101622.31;5063972;28;20039;-81
2022/08/02 04:08:03;;;;;;;8.03;5.00;;;;;;;14.12;75.21;101625.03;5066939;28;20037;-81
2022/08/02 04:10:28;;;;;;;11.00;5.07;;;;;;;14.12;75.23;101616.88;5066482;28;20102;-81
2022/08/02 04:12:54;;;;;;;8.57;4.83;;;;;;;14.12;75.50;101621.50;5066984;28;20044;-81
2022/08/02 04:15:21;;;;;;;11.33;4.93;;;;;;;14.14;75.43;101619.38;5064890;28;20215;-80
2022/08/02 04:17:52;;;;;;;7.27;4.67;;;;;;;14.13;75.69;101623.13;5066419;28;20059;-81
2022/08/02 04:20:20;;;;;;;9.70;4.80;;;;;;;14.13;75.48;101613.09;5065109;28;20029;-81
2022/08/02 04:22:57;;;;;;;8.20;4.77;;;;;;;14.16;76.44;101614.56;5065611;28;20035;-81
2022/08/02 04:25:24;;;;;;;9.57;4.57;;;;;;;14.18;77.22;101624.19;5065770;28;20028;-81
2022/08/02 04:27:50;;;;;;;7.27;4.90;;;;;;;14.15;76.06;101621.03;5065747;28;20050;-81
2022/08/02 04:30:16;;;;;;;10.87;4.50;;;;;;;14.16;75.85;101622.72;5063896;28;20071;-81
2022/08/02 04:32:42;;;;;;;9.00;5.03;;;;;;;14.17;76.34;101618.94;5066073;28;20057;-81
2022/08/02 04:35:08;;;;;;;6.43;4.57;;;;;;;14.17;76.19;101627.09;5065532;28;20044;-81
2022/08/02 04:37:34;;;;;;;10.57;4.73;;;;;;;14.19;76.07;101625.00;5065080;28;20128;-81
2022/08/02 04:40:00;;;;;;;7.07;4.60;;;;;;;14.25;75.79;101626.88;5065941;28;20075;-81
2022/08/02 04:42:25;;;;;;;12.07;4.83;;;;;;;14.24;75.72;101636.09;5065836;28;20838;-81
2022/08/02 04:44:52;;;;;;;8.93;4.97;;;;;;;14.25;77.20;101629.59;5066053;28;20040;-81
2022/08/02 04:47:20;;;;;;;11.63;5.00;;;;;;;14.27;76.67;101629.38;5065975;28;20040;-81
2022/08/02 04:49:46;;;;;;;10.90;5.10;;;;;;;14.24;76.61;101622.47;5065714;28;20430;-81
2022/08/02 04:52:12;;;;;;;10.03;4.83;;;;;;;14.28;76.42;101625.59;5065014;28;20107;-81
2022/08/02 04:54:37;;;;;;;8.77;5.10;;;;;;;14.29;76.29;101619.09;5065014;28;20047;-81
2022/08/02 05:00:02;;;;;;;9.60;5.50;;;;;;;14.26;76.75;101620.34;5050366;28;20115;-81
2022/08/02 05:02:27;;;;;;;10.87;5.43;;;;;;;14.26;76.84;101614.91;5064636;28;20071;-81
2022/08/02 05:04:52;;;;;;;11.70;5.47;;;;;;;14.26;76.84;101616.81;5065493;28;20535;-82
2022/08/02 05:07:18;;;;;;;10.33;5.37;;;;;;;14.27;77.26;101613.84;5064964;28;20024;-81
2022/08/02 05:09:43;;;;;;;9.83;5.47;;;;;;;14.28;77.55;101610.09;5065566;28;20860;-81
2022/08/02 05:12:08;;;;;;;11.90;5.70;;;;;;;14.31;76.99;101612.38;5064301;28;20523;-80
2022/08/02 05:14:34;;;;;;;11.87;6.23;;;;;;;14.38;77.07;101614.22;5065229;28;20610;-81
2022/08/02 05:16:59;;;;;;;12.47;6.17;;;;;;;14.38;77.33;101615.06;5064620;28;20469;-81
2022/08/02 05:19:25;;;;;;;11.93;6.03;;;;;;;14.43;77.29;101619.84;5065512;28;20056;-80
2022/08/02 05:21:50;;;;;;;11.10;5.90;;;;;;;14.48;77.46;101620.03;5064015;28;20040;-81
2022/08/02 05:24:15;;;;;;;12.63;6.40;;;;;;;14.52;77.72;101615.81;5066635;28;20045;-81
2022/08/02 05:26:41;;;;;;;12.97;6.30;;;;;;;14.56;78.02;101605.31;5065130;28;20030;-81
2022/08/02 05:29:06;;;;;;;12.03;6.33;;;;;;;14.60;78.04;101599.19;5064657;28;20488;-80
2022/08/02 05:31:31;;;;;;;13.23;5.93;;;;;;;14.69;77.78;101607.97;5064730;28;20032;-81
2022/08/02 05:33:57;;;;;;;11.73;6.50;;;;;;;14.76;77.81;101605.22;5063810;28;20303;-80
2022/08/02 05:36:22;;;;;;;10.57;6.33;;;;;;;14.81;77.99;101592.56;5064673;28;20539;-81
2022/08/02 05:38:49;;;;;;;9.40;6.20;;;;;;;14.91;77.84;101597.53;5064336;28;20064;-81
2022/08/02 05:41:17;;;;;;;10.83;6.30;;;;;;;14.97;77.88;101606.69;5064000;28;20040;-80
2022/08/02 05:43:43;;;;;;;12.60;6.60;;;;;;;15.07;78.18;101607.06;5065385;28;20043;-80
2022/08/02 05:46:08;;;;;;;9.97;6.57;;;;;;;15.15;78.08;101586.81;5064386;28;20047;-81
2022/08/02 05:48:34;;;;;;;16.03;7.30;;;;;;;15.28;78.63;101597.59;5064803;28;20884;-81
2022/08/02 05:51:03;;;;;;;15.73;7.53;;;;;;;15.42;78.66;101594.75;5064262;28;20193;-80
2022/08/02 05:54:00;;;;;;;14.37;8.17;;;;;;;15.52;78.19;101604.09;5064368;28;20391;-80
2022/08/02 05:56:37;;;;;;;16.47;9.33;;;;;;;15.66;78.88;101610.22;5006876;28;20786;-81
2022/08/02 05:59:10;;;;;;;16.13;9.27;;;;;;;15.77;78.72;101607.81;5063602;28;20041;-80
2022/08/02 06:01:39;;;;;;;15.75;9.23;;;;;;;15.92;78.48;101612.94;5064383;28;21315;-82
2022/08/02 06:04:07;;;;;;;17.13;9.80;;;;;;;16.02;78.62;101608.59;5064657;28;20040;-81
2022/08/02 06:06:34;;;;;;;14.80;9.47;;;;;;;16.11;78.42;101611.00;5064568;28;20103;-80
2022/08/02 06:09:15;;;;;;;14.27;9.23;;;;;;;16.29;78.57;101626.53;5068892;28;20055;-81
2022/08/02 06:11:48;;;;;;;16.53;9.17;;;;;;;16.45;78.38;101619.59;5068308;28;20057;-80
2022/08/02 06:14:13;;;;;;;16.17;9.13;;;;;;;16.62;78.06;101623.34;5068260;28;20094;-82
2022/08/02 06:16:39;;;;;;;16.43;9.80;;;;;;;16.80;77.84;101627.09;5067459;28;22154;-82
2022/08/02 06:19:05;;;;;;;15.93;9.50;;;;;;;16.92;78.15;101627.97;5067325;28;20182;-81
2022/08/02 06:21:31;;;;;;;17.20;10.20;;;;;;;17.00;78.52;101633.09;5067613;28;20387;-80
2022/08/02 06:23:57;;;;;;;17.73;9.90;;;;;;;17.06;77.63;101622.28;5069654;28;20145;-80
2022/08/02 06:26:24;;;;;;;17.13;10.53;;;;;;;17.14;77.74;101619.19;5068641;28;20687;-81
2022/08/02 06:28:51;;;;;;;15.13;9.90;;;;;;;17.26;78.15;101614.56;5068604;28;20072;-80
2022/08/02 06:31:17;;;;;;;17.20;10.70;;;;;;;17.32;77.26;101613.56;5068288;28;20064;-80
2022/08/02 06:33:43;;;;;;;17.73;10.57;;;;;;;17.39;77.83;101610.72;5067721;28;20105;-81
2022/08/02 06:36:26;;;;;;;17.43;10.57;;;;;;;17.52;77.31;101626.09;5067992;28;20040;-81
2022/08/02 06:39:19;;;;;;;13.47;9.73;;;;;;;17.55;76.68;101620.94;5067842;28;20460;-80
2022/08/02 06:41:50;;;;;;;15.67;10.87;;;;;;;17.68;76.78;101625.34;5061488;28;20085;-80
2022/08/02 06:44:16;;;;;;;13.57;10.17;;;;;;;17.79;76.16;101612.72;5068268;28;20047;-80
2022/08/02 06:46:41;;;;;;;15.33;9.83;;;;;;;17.96;76.23;101617.47;5068006;28;20126;-81
2022/08/02 06:49:07;;;;;;;13.13;10.10;;;;;;;18.01;75.29;101615.66;5067048;28;20177;-80
2022/08/02 06:51:33;;;;;;;15.20;10.33;;;;;;;18.16;75.07;101611.56;5067615;28;20090;-81
2022/08/02 06:53:58;;;;;;;17.20;10.30;;;;;;;18.29;75.02;101614.03;5069018;28;20048;-81
2022/08/02 06:56:23;;;;;;;17.07;10.40;;;;;;;18.38;75.04;101611.72;5067301;28;20728;-81
2022/08/02 06:58:49;;;;;;;12.77;9.60;;;;;;;18.54;74.37;101604.59;5067159;28;20044;-80
2022/08/02 07:01:14;;;;;;;16.57;9.83;;;;;;;18.66;74.02;101605.38;5067861;28;20896;-79
2022/08/02 07:03:40;;;;;;;16.50;10.13;;;;;;;18.67;73.10;101598.81;5067520;28;20040;-84
2022/08/02 07:06:10;;;;;;;14.13;10.10;;;;;;;18.88;73.58;101615.66;5068329;28;20048;-77
2022/08/02 07:08:37;;;;;;;14.67;9.83;;;;;;;19.08;73.87;101608.81;5066719;28;20443;-79
2022/08/02 07:11:06;;;;;;;15.07;10.93;;;;;;;19.25;74.11;101606.88;5065801;28;20463;-78
2022/08/02 07:13:32;;;;;;;18.30;11.10;;;;;;;19.36;74.16;101605.94;5067995;28;20036;-79
2022/08/02 07:15:57;;;;;;;15.50;10.53;;;;;;;19.59;73.93;101604.06;5068186;28;20036;-78
2022/08/02 07:18:23;;;;;;;16.45;10.23;;;;;;;19.74;73.96;101612.50;5066389;28;20104;-77
2022/08/02 07:20:49;;;;;;;25.15;10.52;;;;;;;19.86;73.49;101620.69;5067845;28;20036;-78
2022/08/02 07:23:15;;;;;;;16.63;9.52;;;;;;;19.96;72.63;101608.97;5066902;28;20039;-79
2022/08/02 07:25:41;;;;;;;17.38;9.07;;;;;;;20.10;73.84;101606.69;5066487;28;20028;-80
2022/08/02 07:28:08;;;;;;;17.58;9.48;;;;;;;20.01;72.12;101600.78;5067167;28;20055;-79
2022/08/02 07:30:34;;;;;;;16.67;9.18;;;;;;;20.14;72.77;101593.22;5067044;28;20032;-81
2022/08/02 07:33:00;;;;;;;13.07;8.82;;;;;;;20.19;72.56;101596.03;5065956;28;20219;-83
2022/08/02 07:35:26;;;;;;;12.65;9.25;;;;;;;20.28;72.23;101599.13;5066651;28;20174;-85
2022/08/02 07:37:52;;;;;;;14.60;8.02;;;;;;;20.37;72.13;101601.19;5064588;28;20211;-84
2022/08/02 07:40:19;;;;;;;13.68;9.07;;;;;;;20.45;72.07;101599.06;5066772;28;20495;-83
2022/08/02 07:42:46;;;;;;;12.77;8.05;;;;;;;20.42;71.45;101587.47;5064426;28;20877;-84
2022/08/02 07:45:12;;;;;;;12.95;8.55;;;;;;;20.54;71.85;101597.50;5067302;28;20040;-84
2022/08/02 07:47:43;;;;;;;16.40;8.80;;;;;;;20.66;71.73;101594.59;5065732;28;20032;-84
2022/08/02 07:50:10;;;;;;;15.02;8.63;;;;;;;20.80;70.39;101593.06;5065902;28;20761;-81
2022/08/02 07:52:36;;;;;;;11.05;7.78;;;;;;;20.95;69.58;101592.34;5064733;28;20491;-83
2022/08/02 07:55:01;;;;;;;11.68;7.93;;;;;;;21.10;69.20;101605.41;5067375;28;20717;-80
2022/08/02 07:57:26;;;;;;;13.63;7.63;;;;;;;21.13;68.61;101604.88;5066502;28;20032;-83
2022/08/02 07:59:52;;;;;;;12.00;7.63;;;;;;;21.22;69.54;101608.00;5067297;28;20047;-81
2022/08/02 08:02:17;;;;;;;11.10;7.25;;;;;;;21.43;67.77;101600.66;5066111;28;20051;-80
2022/08/02 08:04:43;;;;;;;9.93;6.80;;;;;;;21.46;67.42;101602.06;5065718;28;20163;-81
2022/08/02 08:07:10;;;;;;;10.50;6.38;;;;;;;21.57;67.14;101601.06;5066853;28;21452;-81
2022/08/02 08:09:43;;;;;;;9.48;6.15;;;;;;;21.81;67.92;101603.38;5066646;28;20064;-80
2022/08/02 08:12:10;;;;;;;10.38;6.22;;;;;;;21.81;66.74;101592.34;5066847;28;21405;-84
2022/08/02 08:14:36;;;;;;;11.60;6.00;;;;;;;21.96;65.79;101595.16;5066743;28;20036;-84
2022/08/02 08:17:02;;;;;;;9.43;5.80;;;;;;;22.17;64.76;101587.78;5066642;28;20078;-79
2022/08/02 08:19:28;;;;;;;8.50;5.55;;;;;;;22.22;64.67;101587.78;5066293;28;20053;-81
2022/08/02 08:21:53;;;;;;;8.95;5.50;;;;;;;22.39;64.98;101579.28;5065881;28;20118;-89
2022/08/02 08:24:19;;;;;;;9.93;5.20;;;;;;;22.49;63.99;101588.69;5065859;28;20039;-82
2022/08/02 08:26:44;;;;;;;9.70;4.97;;;;;;;22.48;62.53;101585.13;5065126;28;20727;-84
2022/08/02 08:29:25;;;;;;;4.57;3.70;;;;;;;22.70;61.94;101584.03;5066178;28;20043;-82
2022/08/02 08:31:51;;;;;;;4.97;3.30;;;;;;;22.83;59.93;101588.16;5064535;28;20158;-81
2022/08/02 08:34:16;;;;;;;6.63;3.60;;;;;;;22.95;59.13;101583.16;5065801;28;20046;-84
2022/08/02 08:36:42;;;;;;;6.20;3.30;;;;;;;23.17;59.12;101579.31;5065435;28;20048;-79
2022/08/02 08:39:08;;;;;;;6.20;4.05;;;;;;;23.28;57.95;101586.47;5066837;28;20382;-79
2022/08/02 08:41:34;;;;;;;5.68;3.63;;;;;;;23.58;58.72;101579.19;5066262;28;20028;-81
2022/08/02 08:44:00;;;;;;;5.55;3.60;;;;;;;23.76;56.96;101581.34;5065801;28;20100;-79
2022/08/02 08:46:28;;;;;;;7.00;4.15;;;;;;;23.91;56.86;101585.19;5066401;28;20032;-84
2022/08/02 08:49:08;;;;;;;6.60;3.00;;;;;;;24.24;55.10;101586.38;5065997;28;20028;-80
2022/08/02 08:51:40;;;;;;;5.47;2.78;;;;;;;24.42;53.57;101595.13;5066005;28;20067;-79
2022/08/02 08:54:09;;;;;;;3.50;2.45;;;;;;;24.31;50.89;101586.06;5064750;28;20028;-80
2022/08/02 08:56:35;;;;;;;3.72;2.42;;;;;;;24.45;51.54;101594.53;5065598;28;20460;-79
2022/08/02 08:59:04;;;;;;;3.25;2.58;;;;;;;24.59;51.89;101595.56;5065876;28;20043;-80
2022/08/02 09:01:29;;;;;;;2.92;2.42;;;;;;;24.73;50.70;101587.44;5065746;28;20110;-80
2022/08/02 09:03:55;;;;;;;4.18;2.60;;;;;;;24.71;50.32;101591.59;5064438;28;20044;-80
2022/08/02 09:06:21;;;;;;;3.15;2.30;;;;;;;24.78;49.26;101584.63;5066060;28;20040;-81
2022/08/02 09:08:47;;;;;;;4.70;2.38;;;;;;;24.98;48.71;101595.81;5065154;28;20036;-81
2022/08/02 09:11:18;;;;;;;3.28;2.50;;;;;;;25.07;48.59;101591.31;5064538;28;20369;-80
2022/08/02 09:13:49;;;;;;;6.45;2.50;;;;;;;25.00;49.00;101601.91;5063343;28;20107;-81
2022/08/02 09:16:15;;;;;;;5.18;2.70;;;;;;;25.17;47.44;101596.72;5065527;28;20551;-80
2022/08/02 09:18:44;;;;;;;4.22;2.58;;;;;;;25.19;47.68;101593.69;5065526;28;20052;-81
2022/08/02 09:21:11;;;;;;;4.55;2.50;;;;;;;25.31;46.89;101585.78;5064044;28;20479;-82
2022/08/02 09:23:37;;;;;;;3.45;2.20;;;;;;;25.52;47.33;101591.94;5065787;28;20375;-81
2022/08/02 09:26:08;;;;;;;6.57;2.22;;;;;;;25.68;46.22;101586.22;5066235;28;20036;-79
2022/08/02 09:28:36;;;;;;;2.65;1.90;;;;;;;25.86;44.70;101593.75;5063861;28;22071;-80
2022/08/02 09:31:03;;;;;;;3.45;2.00;;;;;;;25.86;44.01;101596.53;5066042;28;20117;-80
2022/08/02 09:33:29;;;;;;;2.28;1.85;;;;;;;26.15;44.78;101590.06;5065161;28;20470;-81
2022/08/02 09:36:08;;;;;;;2.67;2.00;;;;;;;26.30;43.06;101583.44;5064002;28;20047;-79
2022/08/02 09:38:35;;;;;;;3.85;2.17;;;;;;;26.23;42.82;101591.34;5064511;28;20170;-81
2022/08/02 09:41:03;;;;;;;2.40;1.92;;;;;;;26.38;42.11;101588.34;5064648;28;20028;-78
2022/08/02 09:43:38;;;;;;;2.22;1.90;;;;;;;26.40;42.49;101594.41;5064079;28;20036;-80
2022/08/02 09:46:28;;;;;;;14.45;2.28;;;;;;;26.69;42.75;101593.41;5063612;28;20060;-81
2022/08/02 09:48:58;;;;;;;2.95;1.90;;;;;;;26.51;41.91;101591.50;5065075;28;20419;-82
2022/08/02 09:51:26;;;;;;;3.45;1.92;;;;;;;26.69;40.12;101589.81;5064548;28;20036;-79
2022/08/02 09:53:57;;;;;;;4.72;2.00;;;;;;;26.60;41.17;101595.22;5064365;28;20101;-80
2022/08/02 09:56:24;;;;;;;3.70;2.10;;;;;;;26.58;40.48;101594.69;5065264;28;20035;-78
2022/08/02 09:58:52;;;;;;;5.78;2.45;;;;;;;26.67;41.05;101601.22;5064115;28;20074;-78
2022/08/02 10:01:20;;;;;;;6.10;2.03;;;;;;;26.61;40.80;101589.38;5062975;28;20512;-82
2022/08/02 10:03:56;;;;;;;10.07;2.58;;;;;;;26.90;43.24;101590.28;5064593;28;20040;-82
2022/08/02 10:06:22;;;;;;;4.80;1.83;;;;;;;26.91;41.37;101584.44;5065481;28;20040;-79
2022/08/02 10:08:48;;;;;;;3.33;2.00;;;;;;;27.09;40.07;101588.28;5063773;28;20037;-80
2022/08/02 10:11:13;;;;;;;5.70;2.40;;;;;;;27.13;38.98;101589.34;5065230;28;20043;-79
2022/08/02 10:13:39;;;;;;;2.95;2.00;;;;;;;27.22;37.90;101594.19;5063778;28;20044;-78
2022/08/02 10:16:05;;;;;;;4.57;1.70;;;;;;;27.27;39.04;101585.75;5064160;28;20101;-79
2022/08/02 10:18:31;;;;;;;4.90;2.05;;;;;;;27.02;38.96;101582.28;5064390;28;20048;-80
2022/08/02 10:21:00;;;;;;;5.85;2.10;;;;;;;27.20;39.26;101574.19;5064963;28;20042;-81
2022/08/02 10:23:28;;;;;;;4.45;2.05;;;;;;;27.06;39.70;101583.34;5063741;28;20036;-79
2022/08/02 10:25:56;;;;;;;2.20;2.00;;;;;;;27.35;39.57;101573.91;5065156;28;20472;-79
2022/08/02 10:28:28;;;;;;;2.70;1.80;;;;;;;27.37;37.56;101570.84;5064257;28;20688;-82
2022/08/02 10:30:55;;;;;;;4.57;1.90;;;;;;;27.60;36.99;101580.91;5065086;28;20037;-82
2022/08/02 10:33:21;;;;;;;4.28;1.65;;;;;;;27.65;35.28;101570.81;5062722;28;20558;-80
2022/08/02 10:35:50;;;;;;;1.40;1.30;;;;;;;27.57;35.70;101572.38;5064368;28;20068;-81
2022/08/02 10:38:17;;;;;;;4.43;1.40;;;;;;;27.40;35.07;101576.63;5064670;28;21411;-79
2022/08/02 10:40:48;;;;;;;3.80;1.50;;;;;;;27.29;36.08;101572.34;5064872;28;20031;-79
2022/08/02 10:43:41;;;;;;;2.28;1.40;;;;;;;27.42;37.34;101567.97;5061789;28;20036;-80
2022/08/02 10:46:30;;;;;;;3.95;1.38;;;;;;;27.54;36.90;101565.47;5058174;28;20135;-80
2022/08/02 10:49:08;;;;;;;2.97;1.50;;;;;;;27.27;35.92;101583.78;5059649;28;20040;-84
2022/08/02 10:51:53;;;;;;;3.35;1.38;;;;;;;27.13;35.34;101578.22;5060517;28;20119;-82
2022/08/02 10:54:40;;;;;;;3.90;1.40;;;;;;;26.77;36.23;101570.50;5062605;28;20172;-80
2022/08/02 10:57:16;;;;;;;1.58;1.40;;;;;;;26.81;36.32;101578.25;5064109;28;20036;-82
2022/08/02 10:59:42;;;;;;;2.47;1.30;;;;;;;26.84;35.85;101572.06;5063747;28;20027;-81
2022/08/02 11:02:07;;;;;;;1.35;1.13;;;;;;;26.89;36.15;101575.59;5063654;28;20738;-80
2022/08/02 11:04:35;;;;;;;2.17;1.40;;;;;;;27.00;36.57;101567.88;5063947;28;20369;-81
2022/08/02 11:07:16;;;;;;;4.80;1.40;;;;;;;27.15;37.00;101574.31;5063345;28;20040;-82
2022/08/02 11:09:43;;;;;;;4.57;1.50;;;;;;;27.04;36.57;101568.09;5062940;28;20093;-80
2022/08/02 11:12:14;;;;;;;1.60;1.50;;;;;;;27.03;35.89;101570.03;5063555;28;20063;-81
2022/08/02 11:14:56;;;;;;;3.42;1.30;;;;;;;27.13;35.35;101567.09;5063471;28;20033;-81
2022/08/02 11:17:21;;;;;;;3.28;1.20;;;;;;;27.53;35.17;101557.44;5063611;28;20040;-80
2022/08/02 11:20:11;;;;;;;2.63;1.35;;;;;;;27.82;35.04;101564.63;5064368;28;20055;-82
2022/08/02 11:22:41;;;;;;;4.25;1.67;;;;;;;27.61;33.80;101554.75;5066452;28;20040;-80
2022/08/02 11:25:24;;;;;;;3.95;1.88;;;;;;;27.96;34.34;101560.66;5067841;28;20068;-82
2022/08/02 11:27:58;;;;;;;2.42;1.55;;;;;;;28.16;34.43;101568.91;5067225;28;20047;-81
2022/08/02 11:30:24;;;;;;;1.30;1.20;;;;;;;28.21;32.89;101566.00;5065470;28;20044;-80
2022/08/02 11:32:53;;;;;;;1.45;1.10;;;;;;;28.13;32.86;101565.59;5065805;28;20109;-80